createdAt,value
2019-04-26T00:00:00.237Z,100406.55
2019-04-26T00:02:41.664Z,100397.38
2019-04-26T00:05:10.257Z,100414.53
2019-04-26T00:07:38.976Z,100419.44
2019-04-26T00:10:16.051Z,100412.65
2019-04-26T00:12:52.097Z,100415.41
2019-04-26T00:15:48.293Z,100423.87
2019-04-26T00:18:16.793Z,100423.61
2019-04-26T00:20:45.025Z,100408.24
2019-04-26T00:23:14.116Z,100408.67
2019-04-26T00:25:42.636Z,100392.59
2019-04-26T00:28:11.741Z,100395.93
2019-04-26T00:30:40.992Z,100403.89
2019-04-26T00:33:09.283Z,100395.19
2019-04-26T00:35:47.373Z,100383.05
2019-04-26T00:38:07.564Z,100372.89
2019-04-26T00:40:36.648Z,100395.28
2019-04-26T00:43:04.936Z,100414.39
2019-04-26T00:45:33.364Z,100437.20
2019-04-26T00:48:01.652Z,100445.20
2019-04-26T00:50:30.197Z,100435.69
2019-04-26T00:52:58.490Z,100446.17
2019-04-26T00:55:26.791Z,100458.21
2019-04-26T00:57:55.203Z,100473.61
2019-04-26T01:00:24.179Z,100475.42
2019-04-26T01:02:54.959Z,100470.41
2019-04-26T01:05:23.262Z,100464.22
2019-04-26T01:07:53.509Z,100465.67
2019-04-26T01:10:23.823Z,100454.94
2019-04-26T01:12:53.668Z,100459.60
2019-04-26T01:15:24.635Z,100474.84
2019-04-26T01:17:54.965Z,100475.44
2019-04-26T01:20:27.772Z,100474.62
2019-04-26T01:23:01.095Z,100471.06
2019-04-26T01:25:45.151Z,100475.81
2019-04-26T01:28:19.963Z,100471.63
2019-04-26T01:30:50.782Z,100465.21
2019-04-26T01:33:21.902Z,100466.98
2019-04-26T01:35:53.493Z,100464.03
2019-04-26T01:38:23.766Z,100465.81
2019-04-26T01:40:56.549Z,100466.17
2019-04-26T01:43:44.259Z,100465.59
2019-04-26T01:46:22.191Z,100462.48
2019-04-26T01:49:02.020Z,100469.14
2019-04-26T01:51:39.313Z,100478.58
2019-04-26T01:54:12.987Z,100482.87
2019-04-26T01:56:42.846Z,100476.31
2019-04-26T01:59:15.461Z,100471.07
2019-04-26T02:02:03.605Z,100475.86
2019-04-26T02:04:35.048Z,100478.70
2019-04-26T02:07:05.802Z,100487.04
2019-04-26T02:09:35.485Z,100501.00
2019-04-26T02:12:06.296Z,100505.88
2019-04-26T02:14:36.142Z,100514.92
2019-04-26T02:17:06.379Z,100506.95
2019-04-26T02:19:36.611Z,100498.15
2019-04-26T02:22:19.873Z,100490.29
2019-04-26T02:24:50.371Z,100477.28
2019-04-26T02:27:28.786Z,100474.67
2019-04-26T02:30:00.270Z,100473.72
2019-04-26T02:32:32.744Z,100483.60
2019-04-26T02:35:03.741Z,100495.05
2019-04-26T02:37:36.137Z,100505.88
2019-04-26T02:40:09.702Z,100497.89
2019-04-26T02:42:43.030Z,100502.78
2019-04-26T02:45:49.077Z,100498.61
2019-04-26T02:48:30.837Z,100491.81
2019-04-26T02:51:05.114Z,100481.23
2019-04-26T02:53:43.567Z,100485.28
2019-04-26T02:56:28.144Z,100484.91
2019-04-26T02:59:44.191Z,100486.72
2019-04-26T03:02:24.843Z,100481.11
2019-04-26T03:05:14.107Z,100483.50
2019-04-26T03:07:55.149Z,100477.41
2019-04-26T03:10:40.493Z,100490.51
2019-04-26T03:13:21.398Z,100497.05
2019-04-26T03:16:12.022Z,100486.95
2019-04-26T03:19:02.972Z,100484.43
2019-04-26T03:21:54.270Z,100490.29
2019-04-26T03:24:29.168Z,100472.53
2019-04-26T03:27:17.125Z,100482.29
2019-04-26T03:30:22.292Z,100484.06
2019-04-26T03:33:23.085Z,100488.00
2019-04-26T03:36:23.848Z,100498.95
2019-04-26T03:39:12.616Z,100498.13
2019-04-26T03:42:17.976Z,100480.38
2019-04-26T03:44:58.109Z,100496.34
2019-04-26T03:47:31.185Z,100507.08
2019-04-26T03:50:11.156Z,100516.13
2019-04-26T03:53:15.448Z,100512.08
2019-04-26T03:56:18.193Z,100522.89
2019-04-26T03:59:08.095Z,100508.95
2019-04-26T04:01:47.200Z,100506.80
2019-04-26T04:04:37.701Z,100515.50
2019-04-26T04:07:10.503Z,100520.88
2019-04-26T04:09:44.862Z,100529.91
2019-04-26T04:12:20.846Z,100537.98
2019-04-26T04:15:06.541Z,100546.42
2019-04-26T04:17:50.404Z,100553.44
2019-04-26T04:20:58.143Z,100565.47
2019-04-26T04:23:51.429Z,100563.30
2019-04-26T04:26:46.796Z,100558.52
2019-04-26T04:29:56.711Z,100569.45
2019-04-26T04:32:49.798Z,100575.75
2019-04-26T04:35:23.213Z,100573.72
2019-04-26T04:38:09.195Z,100568.94
2019-04-26T04:41:32.171Z,100565.02
2019-04-26T04:44:16.679Z,100564.88
2019-04-26T04:47:22.912Z,100562.84
2019-04-26T04:49:50.452Z,100547.73
2019-04-26T04:52:28.578Z,100543.01
2019-04-26T04:55:08.286Z,100552.76
2019-04-26T04:58:04.904Z,100546.42
2019-04-26T05:01:35.622Z,100558.58
2019-04-26T05:04:22.749Z,100566.64
2019-04-26T05:07:24.289Z,100575.45
2019-04-26T05:10:10.129Z,100574.14
2019-04-26T05:12:54.332Z,100576.89
2019-04-26T05:16:03.275Z,100582.85
2019-04-26T05:18:58.735Z,100580.32
2019-04-26T05:21:59.214Z,100587.13
2019-04-26T05:24:49.114Z,100587.24
2019-04-26T05:27:42.463Z,100577.38
2019-04-26T05:30:41.045Z,100584.30
2019-04-26T05:33:26.473Z,100579.20
2019-04-26T05:36:05.731Z,100570.64
2019-04-26T05:39:07.961Z,100563.76
2019-04-26T05:42:39.503Z,100563.30
2019-04-26T05:46:15.149Z,100562.13
2019-04-26T05:48:59.351Z,100566.72
2019-04-26T05:52:26.241Z,100593.03
2019-04-26T05:55:51.229Z,100596.23
2019-04-26T05:58:35.073Z,100597.92
2019-04-26T06:01:36.106Z,100597.20
2019-04-26T06:04:41.325Z,100593.36
2019-04-26T06:07:29.020Z,100592.90
2019-04-26T06:10:21.854Z,100604.21
2019-04-26T06:13:27.847Z,100615.27
2019-04-26T06:16:09.906Z,100608.59
2019-04-26T06:19:02.940Z,100605.64
2019-04-26T06:21:40.497Z,100592.31
2019-04-26T06:24:25.796Z,100604.73
2019-04-26T06:27:34.055Z,100609.01
2019-04-26T06:30:09.119Z,100613.66
2019-04-26T06:33:05.552Z,100627.47
2019-04-26T06:35:35.580Z,100639.84
2019-04-26T06:38:54.316Z,100635.06
2019-04-26T06:42:07.543Z,100638.65
2019-04-26T06:45:17.994Z,100638.39
2019-04-26T06:47:58.833Z,100641.27
2019-04-26T06:50:38.452Z,100636.50
2019-04-26T06:53:45.396Z,100638.77
2019-04-26T06:57:07.876Z,100634.71
2019-04-26T06:59:54.665Z,100638.14
2019-04-26T07:02:36.310Z,100643.28
2019-04-26T07:05:17.027Z,100636.95
2019-04-26T07:07:59.142Z,100636.36
2019-04-26T07:10:52.655Z,100633.41
2019-04-26T07:13:52.639Z,100634.02
2019-04-26T07:16:36.504Z,100631.23
2019-04-26T07:19:52.824Z,100631.23
2019-04-26T07:22:56.310Z,100644.66
2019-04-26T07:25:55.629Z,100649.06
2019-04-26T07:28:43.351Z,100661.08
2019-04-26T07:31:20.410Z,100662.59
2019-04-26T07:34:11.671Z,100675.92
2019-04-26T07:37:16.066Z,100686.36
2019-04-26T07:40:50.197Z,100702.06
2019-04-26T07:43:51.712Z,100707.50
2019-04-26T07:46:53.374Z,100715.62
2019-04-26T07:50:04.777Z,100712.73
2019-04-26T07:52:55.090Z,100718.35
2019-04-26T07:55:47.263Z,100703.45
2019-04-26T07:58:53.615Z,100692.99
2019-04-26T08:02:06.744Z,100689.94
2019-04-26T08:04:42.165Z,100694.13
2019-04-26T08:07:19.851Z,100693.33
2019-04-26T08:10:14.749Z,100704.87
2019-04-26T08:12:52.200Z,100699.44
2019-04-26T08:15:44.332Z,100710.39
2019-04-26T08:18:21.052Z,100712.66
2019-04-26T08:21:02.539Z,100702.23
2019-04-26T08:23:41.471Z,100702.23
2019-04-26T08:26:15.561Z,100721.08
2019-04-26T08:28:48.142Z,100727.37
2019-04-26T08:31:24.344Z,100720.58
2019-04-26T08:34:00.203Z,100721.97
2019-04-26T08:36:33.964Z,100721.97
2019-04-26T08:39:09.199Z,100735.47
2019-04-26T08:41:41.341Z,100747.00
2019-04-26T08:44:34.534Z,100757.27
2019-04-26T08:47:16.962Z,100761.78
2019-04-26T08:49:54.074Z,100755.23
2019-04-26T08:52:29.077Z,100756.88
2019-04-26T08:55:00.965Z,100764.75
2019-04-26T08:57:34.470Z,100764.98
2019-04-26T09:00:10.609Z,100767.37
2019-04-26T09:03:15.499Z,100764.77
2019-04-26T09:05:56.366Z,100767.45
2019-04-26T09:08:29.509Z,100770.94
2019-04-26T09:11:01.735Z,100767.73
2019-04-26T09:13:35.207Z,100773.83
2019-04-26T09:16:10.397Z,100776.88
2019-04-26T09:18:43.620Z,100778.66
2019-04-26T09:21:13.304Z,100781.91
2019-04-26T09:24:02.783Z,100781.55
2019-04-26T09:26:46.667Z,100778.36
2019-04-26T09:29:38.264Z,100781.37
2019-04-26T09:32:13.447Z,100769.91
2019-04-26T09:34:43.179Z,100769.21
2019-04-26T09:37:12.919Z,100762.77
2019-04-26T09:39:43.496Z,100761.33
2019-04-26T09:42:21.911Z,100761.07
2019-04-26T09:45:08.567Z,100765.59
2019-04-26T09:47:50.627Z,100772.91
2019-04-26T09:50:26.018Z,100762.48
2019-04-26T09:52:58.123Z,100768.31
2019-04-26T09:55:35.285Z,100766.97
2019-04-26T09:57:58.915Z,100761.59
2019-04-26T10:00:29.902Z,100758.33
2019-04-26T10:03:01.514Z,100760.76
2019-04-26T10:05:31.370Z,100768.06
2019-04-26T10:08:01.325Z,100772.44
2019-04-26T10:10:35.313Z,100770.14
2019-04-26T10:13:27.679Z,100764.75
2019-04-26T10:16:02.476Z,100774.70
2019-04-26T10:18:32.542Z,100782.83
2019-04-26T10:21:02.301Z,100781.94
2019-04-26T10:23:32.418Z,100781.14
2019-04-26T10:26:03.254Z,100785.22
2019-04-26T10:28:32.930Z,100781.41
2019-04-26T10:31:02.606Z,100781.55
2019-04-26T10:33:32.605Z,100783.52
2019-04-26T10:36:03.763Z,100787.09
2019-04-26T10:38:33.465Z,100780.41
2019-04-26T10:41:04.120Z,100782.97
2019-04-26T10:43:33.887Z,100783.34
2019-04-26T10:46:04.408Z,100786.17
2019-04-26T10:48:34.097Z,100785.30
2019-04-26T10:51:07.314Z,100790.66
2019-04-26T10:54:01.781Z,100790.32
2019-04-26T10:56:55.040Z,100792.81
2019-04-26T10:59:39.796Z,100795.78
2019-04-26T11:02:13.937Z,100796.59
2019-04-26T11:04:43.631Z,100805.38
2019-04-26T11:07:13.374Z,100811.72
2019-04-26T11:09:41.678Z,100814.37
2019-04-26T11:12:11.545Z,100816.73
2019-04-26T11:14:39.907Z,100814.68
2019-04-26T11:17:11.386Z,100809.98
2019-04-26T11:19:38.441Z,100802.33
2019-04-26T11:22:06.742Z,100802.56
2019-04-26T11:24:35.188Z,100808.05
2019-04-26T11:27:09.573Z,100794.61
2019-04-26T11:29:37.245Z,100801.38
2019-04-26T11:32:06.955Z,100802.45
2019-04-26T11:34:36.703Z,100805.94
2019-04-26T11:37:06.519Z,100806.20
2019-04-26T11:39:36.521Z,100810.63
2019-04-26T11:42:07.928Z,100816.02
2019-04-26T11:44:39.060Z,100810.28
2019-04-26T11:47:08.778Z,100815.70
2019-04-26T11:49:41.555Z,100823.39
2019-04-26T11:52:10.770Z,100818.52
2019-04-26T11:54:40.738Z,100818.52
2019-04-26T11:57:11.999Z,100816.58
2019-04-26T11:59:42.522Z,100815.47
2019-04-26T12:02:15.907Z,100817.86
2019-04-26T12:04:55.144Z,100820.59
2019-04-26T12:07:30.784Z,100825.22
2019-04-26T12:10:05.780Z,100823.53
2019-04-26T12:12:35.783Z,100822.29
2019-04-26T12:15:08.461Z,100820.36
2019-04-26T12:17:37.670Z,100827.37
2019-04-26T12:20:07.606Z,100827.17
2019-04-26T12:22:39.384Z,100822.72
2019-04-26T12:25:09.820Z,100818.26
2019-04-26T12:27:40.033Z,100814.22
2019-04-26T12:30:10.125Z,100812.80
2019-04-26T12:32:39.814Z,100816.70
2019-04-26T12:35:09.808Z,100806.41
2019-04-26T12:37:39.928Z,100808.16
2019-04-26T12:40:12.238Z,100805.90
2019-04-26T12:42:43.425Z,100808.86
2019-04-26T12:45:31.960Z,100806.80
2019-04-26T12:48:03.491Z,100813.52
2019-04-26T12:50:37.416Z,100815.94
2019-04-26T12:53:05.751Z,100815.89
2019-04-26T12:55:35.655Z,100817.38
2019-04-26T12:58:03.944Z,100826.92
2019-04-26T13:00:33.016Z,100828.77
2019-04-26T13:03:03.890Z,100828.38
2019-04-26T13:05:32.185Z,100827.72
2019-04-26T13:08:00.729Z,100829.90
2019-04-26T13:10:41.446Z,100828.97
2019-04-26T13:13:23.493Z,100827.45
2019-04-26T13:16:11.012Z,100822.66
2019-04-26T13:18:41.156Z,100821.59
2019-04-26T13:21:12.273Z,100819.47
2019-04-26T13:23:42.418Z,100820.03
2019-04-26T13:26:12.134Z,100822.58
2019-04-26T13:28:41.813Z,100820.98
2019-04-26T13:31:11.733Z,100815.28
2019-04-26T13:33:41.539Z,100813.43
2019-04-26T13:36:11.514Z,100816.86
2019-04-26T13:38:43.436Z,100818.62
2019-04-26T13:41:13.041Z,100816.55
2019-04-26T13:43:44.727Z,100819.50
2019-04-26T13:46:30.715Z,100818.14
2019-04-26T13:49:08.706Z,100815.86
2019-04-26T13:51:38.939Z,100814.73
2019-04-26T13:54:08.744Z,100815.03
2019-04-26T13:56:38.601Z,100815.91
2019-04-26T13:59:09.656Z,100821.70
2019-04-26T14:01:39.395Z,100814.05
2019-04-26T14:04:09.446Z,100815.29
2019-04-26T14:06:40.888Z,100817.78
2019-04-26T14:09:13.191Z,100824.12
2019-04-26T14:11:43.225Z,100818.41
2019-04-26T14:14:12.899Z,100826.24
2019-04-26T14:16:42.991Z,100829.47
2019-04-26T14:19:15.369Z,100828.84
2019-04-26T14:21:44.566Z,100827.78
2019-04-26T14:24:28.098Z,100828.95
2019-04-26T14:27:01.307Z,100829.87
2019-04-26T14:29:32.368Z,100831.95
2019-04-26T14:32:04.336Z,100833.97
2019-04-26T14:34:36.281Z,100838.33
2019-04-26T14:37:10.721Z,100833.97
2019-04-26T14:39:49.643Z,100829.80
2019-04-26T14:42:08.780Z,100828.44
2019-04-26T14:44:48.866Z,100827.95
2019-04-26T14:47:14.893Z,100827.80
2019-04-26T14:49:43.040Z,100834.04
2019-04-26T14:52:14.080Z,100833.68
2019-04-26T14:54:45.957Z,100829.69
2019-04-26T14:57:22.094Z,100833.27
2019-04-26T14:59:58.208Z,100831.70
2019-04-26T15:02:47.353Z,100836.39
2019-04-26T15:05:33.864Z,100837.09
2019-04-26T15:08:05.405Z,100841.91
2019-04-26T15:10:43.961Z,100838.64
2019-04-26T15:13:14.601Z,100844.68
2019-04-26T15:15:34.765Z,100841.50
2019-04-26T15:18:03.869Z,100838.73
2019-04-26T15:20:34.681Z,100842.43
2019-04-26T15:23:04.959Z,100836.75
2019-04-26T15:25:36.789Z,100837.02
2019-04-26T15:28:06.941Z,100831.73
2019-04-26T15:30:43.307Z,100838.77
2019-04-26T15:33:12.727Z,100841.12
2019-04-26T15:35:42.167Z,100841.55
2019-04-26T15:38:11.999Z,100846.83
2019-04-26T15:40:54.476Z,100836.83
2019-04-26T15:44:02.705Z,100832.10
2019-04-26T15:46:50.023Z,100832.95
2019-04-26T15:49:38.511Z,100834.59
2019-04-26T15:52:08.440Z,100824.45
2019-04-26T15:54:38.129Z,100824.45
2019-04-26T15:57:08.065Z,100823.92
2019-04-26T15:59:37.747Z,100833.91
2019-04-26T16:02:08.510Z,100826.61
2019-04-26T16:04:38.200Z,100835.23
2019-04-26T16:07:07.974Z,100833.91
2019-04-26T16:09:39.307Z,100831.27
2019-04-26T16:12:09.084Z,100828.03
2019-04-26T16:14:38.781Z,100833.44
2019-04-26T16:17:08.474Z,100836.23
2019-04-26T16:19:38.166Z,100826.09
2019-04-26T16:22:07.931Z,100819.66
2019-04-26T16:24:37.609Z,100814.59
2019-04-26T16:27:07.298Z,100816.05
2019-04-26T16:29:50.978Z,100815.22
2019-04-26T16:32:47.442Z,100807.84
2019-04-26T16:35:18.156Z,100810.94
2019-04-26T16:37:48.821Z,100811.72
2019-04-26T16:40:18.962Z,100814.95
2019-04-26T16:42:54.906Z,100819.03
2019-04-26T16:45:22.684Z,100819.95
2019-04-26T16:47:53.202Z,100820.36
2019-04-26T16:50:31.219Z,100816.33
2019-04-26T16:52:55.806Z,100830.63
2019-04-26T16:55:25.621Z,100820.99
2019-04-26T16:57:58.103Z,100823.89
2019-04-26T17:00:47.144Z,100828.70
2019-04-26T17:03:06.437Z,100829.06
2019-04-26T17:05:47.611Z,100837.70
2019-04-26T17:08:10.460Z,100829.53
2019-04-26T17:10:39.670Z,100825.22
2019-04-26T17:13:09.430Z,100832.11
2019-04-26T17:15:39.180Z,100833.97
2019-04-26T17:18:08.879Z,100831.66
2019-04-26T17:20:40.530Z,100831.11
2019-04-26T17:23:39.488Z,100829.02
2019-04-26T17:26:29.358Z,100838.25
2019-04-26T17:28:59.955Z,100842.82
2019-04-26T17:31:29.702Z,100837.18
2019-04-26T17:33:59.396Z,100842.59
2019-04-26T17:36:29.125Z,100851.58
2019-04-26T17:39:00.243Z,100848.23
2019-04-26T17:41:33.402Z,100851.43
2019-04-26T17:44:10.517Z,100850.33
2019-04-26T17:46:36.460Z,100847.08
2019-04-26T17:49:06.156Z,100840.19
2019-04-26T17:51:42.412Z,100849.59
2019-04-26T17:54:26.520Z,100851.19
2019-04-26T17:56:52.490Z,100852.77
2019-04-26T17:59:32.617Z,100852.58
2019-04-26T18:01:59.887Z,100861.91
2019-04-26T18:04:32.244Z,100854.82
2019-04-26T18:11:48.135Z,100854.16
2019-04-26T18:14:21.681Z,100852.66
2019-04-26T18:16:57.199Z,100852.91
2019-04-26T18:19:44.191Z,100853.52
2019-04-26T18:22:28.428Z,100854.27
2019-04-26T18:24:56.987Z,100853.34
2019-04-26T18:27:29.989Z,100855.89
2019-04-26T18:30:06.626Z,100856.28
2019-04-26T18:32:33.980Z,100855.39
2019-04-26T18:35:02.748Z,100856.89
2019-04-26T18:37:36.505Z,100858.73
2019-04-26T18:40:04.749Z,100870.12
2019-04-26T18:42:37.533Z,100870.44
2019-04-26T18:45:08.482Z,100875.37
2019-04-26T18:47:40.939Z,100867.41
2019-04-26T18:50:10.979Z,100865.05
2019-04-26T18:52:50.647Z,100872.71
2019-04-26T18:55:29.244Z,100871.19
2019-04-26T18:58:01.442Z,100878.98
2019-04-26T19:00:36.314Z,100883.90
2019-04-26T19:03:06.362Z,100889.79
2019-04-26T19:05:36.713Z,100897.46
2019-04-26T19:08:07.602Z,100894.98
2019-04-26T19:10:38.230Z,100890.45
2019-04-26T19:13:32.089Z,100891.91
2019-04-26T19:16:06.090Z,100896.69
2019-04-26T19:18:45.053Z,100890.59
2019-04-26T19:21:39.316Z,100895.14
2019-04-26T19:24:17.236Z,100895.14
2019-04-26T19:26:44.209Z,100904.95
2019-04-26T19:29:18.192Z,100901.83
2019-04-26T19:31:43.646Z,100906.00
2019-04-26T19:34:13.303Z,100913.03
2019-04-26T19:36:43.048Z,100916.59
2019-04-26T19:39:12.928Z,100915.75
2019-04-26T19:41:44.306Z,100910.75
2019-04-26T19:44:14.692Z,100905.97
2019-04-26T19:47:07.111Z,100904.40
2019-04-26T19:49:54.379Z,100913.20
2019-04-26T19:52:46.471Z,100910.19
2019-04-26T19:55:35.146Z,100912.30
2019-04-26T19:58:16.262Z,100910.13
2019-04-26T20:00:46.512Z,100915.74
2019-04-26T20:03:16.791Z,100921.91
2019-04-26T20:05:45.659Z,100916.59
2019-04-26T20:08:15.333Z,100916.59
2019-04-26T20:10:45.931Z,100914.22
2019-04-26T20:13:16.760Z,100913.36
2019-04-26T20:15:46.557Z,100917.27
2019-04-26T20:18:17.661Z,100915.14
2019-04-26T20:20:47.457Z,100913.00
2019-04-26T20:23:19.449Z,100903.77
2019-04-26T20:25:48.861Z,100897.19
2019-04-26T20:28:18.522Z,100899.33
2019-04-26T20:31:05.933Z,100896.91
2019-04-26T20:33:31.136Z,100899.38
2019-04-26T20:36:04.424Z,100893.15
2019-04-26T20:38:35.745Z,100888.14
2019-04-26T20:41:04.918Z,100883.45
2019-04-26T20:43:36.847Z,100884.70
2019-04-26T20:46:14.594Z,100887.41
2019-04-26T20:48:39.264Z,100887.38
2019-04-26T20:51:10.913Z,100888.16
2019-04-26T20:53:43.459Z,100882.62
2019-04-26T20:56:18.161Z,100876.50
2019-04-26T20:58:47.108Z,100876.20
2019-04-26T21:01:16.143Z,100870.65
2019-04-26T21:03:46.337Z,100865.95
2019-04-26T21:06:16.995Z,100872.45
2019-04-26T21:08:47.628Z,100862.30
2019-04-26T21:11:16.035Z,100864.09
2019-04-26T21:13:44.463Z,100861.63
2019-04-26T21:16:15.182Z,100861.58
2019-04-26T21:18:44.417Z,100864.96
2019-04-26T21:21:15.784Z,100859.41
2019-04-26T21:23:43.972Z,100857.48
2019-04-26T21:26:29.799Z,100856.96
2019-04-26T21:29:20.466Z,100855.95
2019-04-26T21:31:59.305Z,100852.44
2019-04-26T21:34:30.708Z,100851.53
2019-04-26T21:37:17.211Z,100848.86
2019-04-26T21:40:17.001Z,100848.20
2019-04-26T21:42:45.591Z,100857.19
2019-04-26T21:45:15.407Z,100853.59
2019-04-26T21:47:45.353Z,100853.66
2019-04-26T21:50:15.095Z,100855.08
2019-04-26T21:52:45.624Z,100854.73
2019-04-26T21:55:16.735Z,100848.77
2019-04-26T21:57:46.566Z,100845.88
2019-04-26T22:00:34.897Z,100847.75
2019-04-26T22:03:07.894Z,100846.06
2019-04-26T22:05:43.966Z,100849.80
2019-04-26T22:08:17.487Z,100847.76
2019-04-26T22:10:46.189Z,100850.02
2019-04-26T22:13:31.206Z,100856.16
2019-04-26T22:16:29.264Z,100855.53
2019-04-26T22:18:56.498Z,100853.98
2019-04-26T22:21:30.651Z,100844.78
2019-04-26T22:24:13.208Z,100840.86
2019-04-26T22:26:47.690Z,100839.91
2019-04-26T22:29:16.775Z,100833.27
2019-04-26T22:31:45.497Z,100830.77
2019-04-26T22:34:15.185Z,100833.10
2019-04-26T22:36:44.873Z,100834.44
2019-04-26T22:39:14.117Z,100837.44
2019-04-26T22:41:44.049Z,100828.98
2019-04-26T22:44:34.612Z,100830.11
2019-04-26T22:47:16.991Z,100832.12
2019-04-26T22:49:45.480Z,100836.34
2019-04-26T22:52:16.297Z,100829.82
2019-04-26T22:54:46.536Z,100835.42
2019-04-26T22:57:16.148Z,100828.97
2019-04-26T22:59:49.835Z,100830.28
2019-04-26T23:02:18.510Z,100825.80
2019-04-26T23:04:45.742Z,100826.64
2019-04-26T23:07:18.366Z,100824.49
2019-04-26T23:09:51.998Z,100830.38
2019-04-26T23:12:31.256Z,100830.53
2019-04-26T23:15:14.825Z,100824.22
2019-04-26T23:18:11.669Z,100827.21
2019-04-26T23:20:49.209Z,100826.72
2019-04-26T23:23:18.898Z,100827.49
2019-04-26T23:25:48.577Z,100826.26
2019-04-26T23:28:18.269Z,100826.96
2019-04-26T23:30:48.457Z,100819.41
2019-04-26T23:33:18.186Z,100816.52
2019-04-26T23:35:47.956Z,100815.59
2019-04-26T23:38:17.614Z,100810.55
2019-04-26T23:40:47.293Z,100803.80
2019-04-26T23:43:16.979Z,100808.84
2019-04-26T23:45:48.185Z,100809.48
2019-04-26T23:48:18.030Z,100799.66
2019-04-26T23:50:47.693Z,100805.05
2019-04-26T23:53:20.173Z,100794.98
2019-04-26T23:55:48.999Z,100796.65
2019-04-26T23:58:18.903Z,100796.30
